createdAt,value
2018-08-30T00:00:57.298Z,101638.52
2018-08-30T00:01:57.485Z,101640.63
2018-08-30T00:02:56.407Z,101641.84
2018-08-30T00:03:57.890Z,101643.78
2018-08-30T00:04:58.853Z,101645.38
2018-08-30T00:05:06.926Z,101675.92
2018-08-30T00:06:08.722Z,101675.67
2018-08-30T00:07:09.181Z,101675.50
2018-08-30T00:08:10.062Z,101675.84
2018-08-30T00:09:10.985Z,101676.02
2018-08-30T00:10:11.404Z,101675.94
2018-08-30T00:11:11.434Z,101675.34
2018-08-30T00:12:11.815Z,101675.64
2018-08-30T00:13:12.804Z,101675.91
2018-08-30T00:14:13.629Z,101675.98
2018-08-30T00:15:15.479Z,101676.42
2018-08-30T00:16:14.753Z,101676.38
2018-08-30T00:17:15.695Z,101676.81
2018-08-30T00:18:16.062Z,101677.08
2018-08-30T00:19:16.940Z,101677.38
2018-08-30T00:20:17.830Z,101677.94
2018-08-30T00:21:18.148Z,101678.22
2018-08-30T00:22:19.013Z,101678.44
2018-08-30T00:23:19.375Z,101679.09
2018-08-30T00:24:19.909Z,101679.66
2018-08-30T00:25:20.300Z,101680.73
2018-08-30T00:26:20.391Z,101681.21
2018-08-30T00:27:20.860Z,101682.51
2018-08-30T00:28:21.373Z,101682.91
2018-08-30T00:29:22.174Z,101683.00
2018-08-30T00:30:22.702Z,101684.28
2018-08-30T00:31:23.640Z,101684.81
2018-08-30T00:32:23.652Z,101685.37
2018-08-30T00:33:24.023Z,101685.72
2018-08-30T00:34:24.986Z,101686.53
2018-08-30T00:35:25.372Z,101687.05
2018-08-30T00:36:25.348Z,101687.70
2018-08-30T00:37:25.401Z,101688.60
2018-08-30T00:38:25.732Z,101689.20
2018-08-30T00:39:26.575Z,101690.06
2018-08-30T00:40:27.365Z,101691.42
2018-08-30T00:41:27.676Z,101692.28
2018-08-30T00:42:27.465Z,101693.47
2018-08-30T00:43:28.999Z,101694.16
2018-08-30T00:44:28.276Z,101694.41
2018-08-30T00:45:29.565Z,101695.14
2018-08-30T00:46:29.834Z,101696.16
2018-08-30T00:47:30.055Z,101697.14
2018-08-30T00:48:30.360Z,101698.38
2018-08-30T00:48:38.466Z,101711.20
2018-08-30T00:49:39.799Z,101710.78
2018-08-30T00:50:40.192Z,101711.55
2018-08-30T00:51:40.483Z,101712.05
2018-08-30T00:52:41.382Z,101712.48
2018-08-30T00:53:41.691Z,101713.34
2018-08-30T00:54:41.977Z,101714.37
2018-08-30T00:55:42.317Z,101714.80
2018-08-30T00:56:42.620Z,101715.48
2018-08-30T00:57:43.011Z,101715.95
2018-08-30T00:58:43.304Z,101715.95
2018-08-30T00:59:43.641Z,101716.63
2018-08-30T01:00:44.524Z,101717.06
2018-08-30T01:01:45.051Z,101718.10
2018-08-30T01:02:45.143Z,101719.00
2018-08-30T01:03:45.509Z,101719.64
2018-08-30T01:04:46.505Z,101720.69
2018-08-30T01:05:46.760Z,101721.23
2018-08-30T01:06:47.606Z,101722.45
2018-08-30T01:07:47.911Z,101723.17
2018-08-30T01:08:48.220Z,101724.21
2018-08-30T01:09:48.835Z,101725.28
2018-08-30T01:10:49.218Z,101725.66
2018-08-30T01:11:49.596Z,101726.52
2018-08-30T01:12:49.946Z,101726.78
2018-08-30T01:13:50.221Z,101727.30
2018-08-30T01:14:50.470Z,101727.90
2018-08-30T01:15:50.785Z,101728.55
2018-08-30T01:16:51.078Z,101729.24
2018-08-30T01:17:51.359Z,101730.31
2018-08-30T01:18:51.617Z,101731.13
2018-08-30T01:19:52.032Z,101731.48
2018-08-30T01:20:52.323Z,101732.20
2018-08-30T01:21:52.859Z,101732.91
2018-08-30T01:22:53.640Z,101733.29
2018-08-30T01:23:53.913Z,101733.47
2018-08-30T01:24:54.230Z,101734.16
2018-08-30T01:25:54.516Z,101734.86
2018-08-30T01:26:54.842Z,101735.76
2018-08-30T01:27:55.135Z,101736.70
2018-08-30T01:28:55.993Z,101737.43
2018-08-30T01:29:56.961Z,101737.78
2018-08-30T01:30:57.365Z,101737.83
2018-08-30T01:31:06.088Z,101742.08
2018-08-30T01:32:07.336Z,101741.83
2018-08-30T01:33:07.356Z,101742.69
2018-08-30T01:34:07.649Z,101743.20
2018-08-30T01:35:08.462Z,101744.22
2018-08-30T01:36:08.502Z,101744.90
2018-08-30T01:37:08.786Z,101745.84
2018-08-30T01:38:09.038Z,101746.36
2018-08-30T01:39:09.342Z,101746.66
2018-08-30T01:40:10.185Z,101747.44
2018-08-30T01:41:10.499Z,101747.88
2018-08-30T01:42:10.821Z,101748.50
2018-08-30T01:43:11.368Z,101749.20
2018-08-30T01:44:11.926Z,101750.34
2018-08-30T01:45:11.216Z,101751.30
2018-08-30T01:46:12.653Z,101752.75
2018-08-30T01:47:13.199Z,101753.83
2018-08-30T01:48:13.200Z,101755.58
2018-08-30T01:49:13.366Z,101757.05
2018-08-30T01:50:13.621Z,101758.97
2018-08-30T01:51:13.975Z,101760.55
2018-08-30T01:52:14.295Z,101761.97
2018-08-30T01:53:14.622Z,101763.69
2018-08-30T01:54:14.889Z,101764.80
2018-08-30T01:55:15.527Z,101765.96
2018-08-30T01:56:15.851Z,101767.33
2018-08-30T01:57:16.537Z,101768.92
2018-08-30T01:58:17.792Z,101770.78
2018-08-30T01:59:17.203Z,101773.48
2018-08-30T02:00:18.072Z,101774.95
2018-08-30T02:01:18.390Z,101775.81
2018-08-30T02:02:19.215Z,101777.29
2018-08-30T02:03:20.160Z,101779.09
2018-08-30T02:04:20.688Z,101780.10
2018-08-30T02:05:20.937Z,101780.71
2018-08-30T02:06:21.246Z,101781.88
2018-08-30T02:07:21.519Z,101782.56
2018-08-30T02:08:21.957Z,101783.98
2018-08-30T02:09:22.250Z,101784.05
2018-08-30T02:10:23.206Z,101784.83
2018-08-30T02:11:24.272Z,101785.22
2018-08-30T02:12:23.647Z,101785.95
2018-08-30T02:13:23.980Z,101786.73
2018-08-30T02:14:24.332Z,101787.55
2018-08-30T02:14:33.229Z,101793.97
2018-08-30T02:15:34.562Z,101793.89
2018-08-30T02:16:35.412Z,101793.97
2018-08-30T02:17:36.375Z,101794.06
2018-08-30T02:18:36.403Z,101794.23
2018-08-30T02:19:37.233Z,101794.41
2018-08-30T02:20:37.322Z,101794.40
2018-08-30T02:21:37.988Z,101794.86
2018-08-30T02:22:38.901Z,101794.95
2018-08-30T02:23:39.701Z,101795.42
2018-08-30T02:24:40.527Z,101796.18
2018-08-30T02:25:40.853Z,101796.43
2018-08-30T02:26:41.109Z,101796.60
2018-08-30T02:27:41.401Z,101797.41
2018-08-30T02:28:41.841Z,101798.08
2018-08-30T02:29:42.110Z,101797.70
2018-08-30T02:30:42.920Z,101798.59
2018-08-30T02:31:43.820Z,101798.59
2018-08-30T02:32:44.045Z,101798.42
2018-08-30T02:33:44.355Z,101798.38
2018-08-30T02:34:45.079Z,101799.05
2018-08-30T02:35:45.394Z,101798.97
2018-08-30T02:36:46.402Z,101799.58
2018-08-30T02:37:46.889Z,101799.96
2018-08-30T02:38:47.120Z,101800.31
2018-08-30T02:39:48.392Z,101801.09
2018-08-30T02:40:47.668Z,101801.56
2018-08-30T02:41:47.960Z,101802.33
2018-08-30T02:42:48.208Z,101802.63
2018-08-30T02:43:48.484Z,101803.73
2018-08-30T02:44:48.732Z,101804.47
2018-08-30T02:45:49.025Z,101804.91
2018-08-30T02:46:49.293Z,101805.03
2018-08-30T02:47:49.814Z,101805.93
2018-08-30T02:48:50.198Z,101806.63
2018-08-30T02:49:49.677Z,101807.35
2018-08-30T02:50:50.983Z,101808.30
2018-08-30T02:51:51.387Z,101809.36
2018-08-30T02:52:51.859Z,101809.97
2018-08-30T02:53:52.181Z,101811.30
2018-08-30T02:54:52.499Z,101811.94
2018-08-30T02:55:52.862Z,101812.84
2018-08-30T02:56:53.366Z,101813.67
2018-08-30T02:57:53.651Z,101814.62
2018-08-30T02:58:53.871Z,101816.13
2018-08-30T02:59:54.342Z,101817.25
2018-08-30T03:00:03.154Z,101837.34
2018-08-30T03:01:04.361Z,101836.58
2018-08-30T03:02:04.640Z,101836.15
2018-08-30T03:03:05.034Z,101835.81
2018-08-30T03:04:05.430Z,101834.92
2018-08-30T03:05:05.869Z,101834.59
2018-08-30T03:06:06.124Z,101834.16
2018-08-30T03:07:06.597Z,101833.10
2018-08-30T03:08:07.187Z,101833.14
2018-08-30T03:09:07.429Z,101832.81
2018-08-30T03:10:07.697Z,101832.52
2018-08-30T03:11:08.046Z,101832.34
2018-08-30T03:12:08.659Z,101831.88
2018-08-30T03:13:09.283Z,101831.80
2018-08-30T03:14:09.565Z,101831.97
2018-08-30T03:15:09.807Z,101832.14
2018-08-30T03:16:10.050Z,101832.91
2018-08-30T03:17:10.654Z,101833.66
2018-08-30T03:18:11.401Z,101834.05
2018-08-30T03:19:11.622Z,101834.98
2018-08-30T03:20:12.009Z,101835.23
2018-08-30T03:21:13.258Z,101836.05
2018-08-30T03:22:12.563Z,101836.30
2018-08-30T03:23:13.174Z,101837.66
2018-08-30T03:24:13.480Z,101838.28
2018-08-30T03:25:13.787Z,101839.01
2018-08-30T03:26:14.152Z,101839.84
2018-08-30T03:27:14.958Z,101840.17
2018-08-30T03:28:16.169Z,101841.41
2018-08-30T03:29:15.740Z,101841.32
2018-08-30T03:30:15.997Z,101841.70
2018-08-30T03:31:15.258Z,101841.83
2018-08-30T03:32:16.708Z,101841.48
2018-08-30T03:33:16.919Z,101841.61
2018-08-30T03:34:18.155Z,101841.94
2018-08-30T03:35:17.977Z,101842.24
2018-08-30T03:36:18.316Z,101841.90
2018-08-30T03:37:18.547Z,101842.41
2018-08-30T03:38:19.068Z,101842.79
2018-08-30T03:39:19.565Z,101843.13
2018-08-30T03:40:19.833Z,101843.09
2018-08-30T03:41:20.110Z,101843.59
2018-08-30T03:42:20.510Z,101843.77
2018-08-30T03:43:20.959Z,101844.45
2018-08-30T03:44:21.700Z,101844.95
2018-08-30T03:44:31.654Z,101859.44
2018-08-30T03:45:32.899Z,101858.88
2018-08-30T03:46:33.178Z,101859.27
2018-08-30T03:47:34.020Z,101859.69
2018-08-30T03:48:34.457Z,101860.20
2018-08-30T03:49:35.671Z,101860.50
2018-08-30T03:50:35.200Z,101861.22
2018-08-30T03:51:35.484Z,101861.14
2018-08-30T03:52:35.777Z,101861.79
2018-08-30T03:53:36.114Z,101862.27
2018-08-30T03:54:36.385Z,101862.56
2018-08-30T03:55:36.800Z,101862.23
2018-08-30T03:56:37.063Z,101862.71
2018-08-30T03:57:37.580Z,101863.27
2018-08-30T03:58:38.380Z,101863.49
2018-08-30T03:59:38.649Z,101863.80
2018-08-30T04:00:39.085Z,101864.36
2018-08-30T04:01:39.355Z,101865.34
2018-08-30T04:02:39.661Z,101865.64
2018-08-30T04:03:39.924Z,101866.33
2018-08-30T04:04:40.270Z,101867.15
2018-08-30T04:05:40.607Z,101867.53
2018-08-30T04:06:41.057Z,101868.22
2018-08-30T04:07:41.593Z,101869.16
2018-08-30T04:08:42.192Z,101869.55
2018-08-30T04:09:42.508Z,101870.48
2018-08-30T04:10:43.800Z,101871.20
2018-08-30T04:11:43.128Z,101872.23
2018-08-30T04:12:43.406Z,101872.88
2018-08-30T04:13:43.734Z,101873.98
2018-08-30T04:14:44.012Z,101875.48
2018-08-30T04:15:44.750Z,101876.08
2018-08-30T04:16:45.030Z,101876.76
2018-08-30T04:17:45.499Z,101877.87
2018-08-30T04:18:45.804Z,101878.98
2018-08-30T04:19:46.205Z,101880.52
2018-08-30T04:20:46.496Z,101881.88
2018-08-30T04:21:47.454Z,101883.25
2018-08-30T04:22:47.757Z,101884.27
2018-08-30T04:23:48.380Z,101885.41
2018-08-30T04:24:48.929Z,101886.87
2018-08-30T04:25:49.254Z,101888.48
2018-08-30T04:26:49.805Z,101889.97
2018-08-30T04:27:50.316Z,101891.09
2018-08-30T04:28:50.618Z,101892.54
2018-08-30T04:28:59.608Z,101912.96
2018-08-30T04:29:59.872Z,101912.41
2018-08-30T04:31:00.694Z,101912.32
2018-08-30T04:32:00.953Z,101911.98
2018-08-30T04:33:01.269Z,101912.45
2018-08-30T04:34:02.185Z,101912.20
2018-08-30T04:35:02.478Z,101911.60
2018-08-30T04:36:02.784Z,101911.47
2018-08-30T04:37:03.128Z,101911.48
2018-08-30T04:38:03.443Z,101911.44
2018-08-30T04:39:03.837Z,101911.60
2018-08-30T04:40:04.192Z,101911.83
2018-08-30T04:41:04.468Z,101912.42
2018-08-30T04:42:05.178Z,101912.75
2018-08-30T04:43:04.464Z,101914.03
2018-08-30T04:44:05.774Z,101914.12
2018-08-30T04:45:06.098Z,101914.20
2018-08-30T04:46:06.434Z,101915.02
2018-08-30T04:47:06.676Z,101915.78
2018-08-30T04:48:07.120Z,101917.06
2018-08-30T04:49:07.378Z,101918.26
2018-08-30T04:50:07.662Z,101918.52
2018-08-30T04:51:08.000Z,101918.86
2018-08-30T04:52:08.277Z,101919.38
2018-08-30T04:53:08.753Z,101920.22
2018-08-30T04:54:09.027Z,101921.41
2018-08-30T04:55:09.323Z,101921.70
2018-08-30T04:56:09.809Z,101922.22
2018-08-30T04:57:10.633Z,101922.56
2018-08-30T04:58:10.961Z,101923.24
2018-08-30T04:59:11.245Z,101923.75
2018-08-30T05:00:11.541Z,101924.78
2018-08-30T05:01:11.843Z,101925.12
2018-08-30T05:02:12.158Z,101926.02
2018-08-30T05:03:12.468Z,101926.70
2018-08-30T05:04:12.707Z,101927.12
2018-08-30T05:05:13.054Z,101927.97
2018-08-30T05:06:12.373Z,101928.73
2018-08-30T05:07:13.818Z,101929.84
2018-08-30T05:08:14.142Z,101930.66
2018-08-30T05:09:14.596Z,101931.33
2018-08-30T05:10:14.862Z,101932.31
2018-08-30T05:11:15.382Z,101933.12
2018-08-30T05:12:16.336Z,101934.44
2018-08-30T05:13:16.708Z,101935.11
2018-08-30T05:14:17.135Z,101936.34
2018-08-30T05:15:17.395Z,101937.36
2018-08-30T05:15:26.248Z,101951.09
2018-08-30T05:16:27.475Z,101951.52
2018-08-30T05:17:26.996Z,101952.03
2018-08-30T05:18:28.232Z,101952.16
2018-08-30T05:19:28.860Z,101952.67
2018-08-30T05:20:29.555Z,101952.92
2018-08-30T05:21:29.873Z,101953.09
2018-08-30T05:22:30.241Z,101953.27
2018-08-30T05:23:30.581Z,101953.10
2018-08-30T05:24:30.961Z,101953.14
2018-08-30T05:25:32.336Z,101953.70
2018-08-30T05:26:31.810Z,101954.47
2018-08-30T05:27:32.095Z,101954.47
2018-08-30T05:28:31.479Z,101954.52
2018-08-30T05:29:33.357Z,101955.03
2018-08-30T05:30:33.632Z,101955.08
2018-08-30T05:31:33.858Z,101955.08
2018-08-30T05:32:34.148Z,101955.29
2018-08-30T05:33:34.443Z,101955.50
2018-08-30T05:34:35.178Z,101955.09
2018-08-30T05:35:35.585Z,101955.22
2018-08-30T05:36:34.812Z,101955.44
2018-08-30T05:37:36.098Z,101955.48
2018-08-30T05:38:36.427Z,101955.78
2018-08-30T05:39:36.683Z,101956.00
2018-08-30T05:40:36.929Z,101956.64
2018-08-30T05:41:37.250Z,101957.11
2018-08-30T05:42:37.510Z,101957.62
2018-08-30T05:43:37.851Z,101959.03
2018-08-30T05:44:38.125Z,101959.46
2018-08-30T05:45:37.509Z,101960.41
2018-08-30T05:46:39.002Z,101961.59
2018-08-30T05:47:39.479Z,101962.45
2018-08-30T05:48:40.274Z,101963.42
2018-08-30T05:49:40.722Z,101964.44
2018-08-30T05:50:41.158Z,101965.64
2018-08-30T05:51:40.551Z,101966.31
2018-08-30T05:52:41.867Z,101967.73
2018-08-30T05:53:42.263Z,101968.49
2018-08-30T05:54:42.590Z,101969.34
2018-08-30T05:55:43.176Z,101970.07
2018-08-30T05:56:43.575Z,101971.25
2018-08-30T05:57:43.920Z,101971.81
2018-08-30T05:58:43.321Z,101972.66
2018-08-30T05:59:44.654Z,101973.25
2018-08-30T06:00:44.922Z,101974.06
2018-08-30T06:01:45.247Z,101974.91
2018-08-30T06:02:45.506Z,101975.30
2018-08-30T06:03:46.027Z,101975.64
2018-08-30T06:03:54.882Z,101982.41
2018-08-30T06:04:55.186Z,101981.98
2018-08-30T06:05:55.910Z,101982.25
2018-08-30T06:06:56.214Z,101982.02
2018-08-30T06:07:57.065Z,101982.20
2018-08-30T06:08:57.404Z,101982.37
2018-08-30T06:09:57.737Z,101983.09
2018-08-30T06:10:58.096Z,101983.01
2018-08-30T06:11:58.415Z,101982.80
2018-08-30T06:12:58.994Z,101983.05
2018-08-30T06:13:58.447Z,101983.34
2018-08-30T06:14:59.780Z,101983.16
2018-08-30T06:16:00.059Z,101983.68
2018-08-30T06:17:00.800Z,101983.55
2018-08-30T06:18:01.455Z,101983.76
2018-08-30T06:19:01.537Z,101984.13
2018-08-30T06:20:01.800Z,101984.55
2018-08-30T06:21:02.383Z,101985.02
2018-08-30T06:22:02.192Z,101985.02
2018-08-30T06:23:03.520Z,101985.69
2018-08-30T06:24:03.937Z,101986.18
2018-08-30T06:25:04.258Z,101986.43
2018-08-30T06:26:04.464Z,101987.23
2018-08-30T06:27:04.936Z,101987.99
2018-08-30T06:28:05.550Z,101988.37
2018-08-30T06:29:04.868Z,101988.20
2018-08-30T06:30:05.182Z,101988.23
2018-08-30T06:31:06.493Z,101988.31
2018-08-30T06:32:06.819Z,101988.43
2018-08-30T06:33:07.182Z,101988.85
2018-08-30T06:34:07.625Z,101989.14
2018-08-30T06:35:06.874Z,101989.86
2018-08-30T06:36:08.199Z,101990.11
2018-08-30T06:37:08.525Z,101990.95
2018-08-30T06:38:08.890Z,101991.06
2018-08-30T06:39:09.198Z,101991.56
2018-08-30T06:40:09.633Z,101992.66
2018-08-30T06:41:09.958Z,101993.41
2018-08-30T06:42:10.302Z,101993.83
2018-08-30T06:43:10.678Z,101994.47
2018-08-30T06:44:11.117Z,101994.84
2018-08-30T06:45:11.476Z,101995.38
2018-08-30T06:46:11.826Z,101995.83
2018-08-30T06:47:12.023Z,101996.44
2018-08-30T06:48:12.399Z,101997.41
2018-08-30T06:49:12.666Z,101998.16
2018-08-30T06:50:13.000Z,101998.39
2018-08-30T06:51:13.332Z,101999.00
2018-08-30T06:51:24.537Z,102008.33
2018-08-30T06:52:24.881Z,102007.57
2018-08-30T06:53:26.179Z,102007.31
2018-08-30T06:54:26.510Z,102007.47
2018-08-30T06:55:27.055Z,102007.58
2018-08-30T06:56:27.448Z,102008.08
2018-08-30T06:57:26.991Z,102008.32
2018-08-30T06:58:27.276Z,102008.78
2018-08-30T06:59:27.614Z,102009.07
2018-08-30T07:00:28.901Z,102009.80
2018-08-30T07:01:29.188Z,102009.70
2018-08-30T07:02:29.637Z,102009.83
2018-08-30T07:03:30.307Z,102010.33
2018-08-30T07:04:30.636Z,102010.41
2018-08-30T07:05:30.970Z,102010.45
2018-08-30T07:06:31.385Z,102010.96
2018-08-30T07:07:31.654Z,102011.94
2018-08-30T07:08:32.033Z,102012.14
2018-08-30T07:09:32.370Z,102012.69
2018-08-30T07:10:32.701Z,102012.85
2018-08-30T07:11:33.025Z,102013.23
2018-08-30T07:12:34.324Z,102013.02
2018-08-30T07:13:34.095Z,102013.42
2018-08-30T07:14:34.763Z,102013.68
2018-08-30T07:15:34.071Z,102014.31
2018-08-30T07:16:35.539Z,102014.89
2018-08-30T07:17:35.977Z,102015.27
2018-08-30T07:18:35.251Z,102015.57
2018-08-30T07:19:36.730Z,102016.16
2018-08-30T07:20:37.634Z,102017.10
2018-08-30T07:21:38.135Z,102017.66
2018-08-30T07:22:38.694Z,102018.34
2018-08-30T07:23:39.167Z,102019.03
2018-08-30T07:24:39.463Z,102019.71
2018-08-30T07:25:39.835Z,102019.77
2018-08-30T07:26:40.157Z,102020.80
2018-08-30T07:27:40.872Z,102021.55
2018-08-30T07:28:41.128Z,102022.14
2018-08-30T07:29:40.442Z,102022.88
2018-08-30T07:30:40.815Z,102023.28
2018-08-30T07:31:42.258Z,102024.53
2018-08-30T07:32:42.563Z,102025.61
2018-08-30T07:33:42.815Z,102026.47
2018-08-30T07:34:43.151Z,102027.28
2018-08-30T07:35:42.455Z,102028.56
2018-08-30T07:36:43.757Z,102030.02
2018-08-30T07:37:44.100Z,102031.36
2018-08-30T07:38:44.423Z,102033.08
2018-08-30T07:39:44.719Z,102034.41
2018-08-30T07:40:45.115Z,102035.61
2018-08-30T07:41:10.490Z,102056.19
2018-08-30T07:42:11.914Z,102055.94
2018-08-30T07:43:15.479Z,102056.11
2018-08-30T07:44:12.988Z,102056.50
2018-08-30T07:45:12.299Z,102055.95
2018-08-30T07:46:13.649Z,102055.95
2018-08-30T07:47:14.111Z,102056.34
2018-08-30T07:48:13.296Z,102056.95
2018-08-30T07:49:14.786Z,102056.55
2018-08-30T07:50:15.077Z,102056.39
2018-08-30T07:51:15.362Z,102056.61
2018-08-30T07:52:15.690Z,102056.94
2018-08-30T07:53:16.008Z,102057.73
2018-08-30T07:54:16.289Z,102057.78
2018-08-30T07:55:16.677Z,102057.98
2018-08-30T07:56:17.022Z,102058.53
2018-08-30T07:57:17.409Z,102059.33
2018-08-30T07:58:17.875Z,102059.84
2018-08-30T07:59:18.194Z,102060.59
2018-08-30T08:00:18.735Z,102060.43
2018-08-30T08:01:19.295Z,102060.80
2018-08-30T08:02:19.782Z,102061.16
2018-08-30T08:03:20.198Z,102061.75
2018-08-30T08:04:20.464Z,102062.02
2018-08-30T08:05:20.790Z,102062.86
2018-08-30T08:06:21.176Z,102063.47
2018-08-30T08:07:21.949Z,102063.73
2018-08-30T08:08:21.295Z,102064.83
2018-08-30T08:09:22.693Z,102065.64
2018-08-30T08:10:22.940Z,102065.89
2018-08-30T08:11:23.227Z,102067.12
2018-08-30T08:12:23.454Z,102068.25
2018-08-30T08:13:23.760Z,102069.38
2018-08-30T08:14:24.622Z,102070.47
2018-08-30T08:15:24.938Z,102071.51
2018-08-30T08:16:25.210Z,102071.88
2018-08-30T08:17:25.567Z,102072.45
2018-08-30T08:18:25.929Z,102072.91
2018-08-30T08:19:26.346Z,102073.69
2018-08-30T08:20:26.861Z,102074.17
2018-08-30T08:21:27.231Z,102074.80
2018-08-30T08:22:27.564Z,102075.36
2018-08-30T08:23:27.873Z,102076.33
2018-08-30T08:24:28.230Z,102077.27
2018-08-30T08:25:28.783Z,102078.43
2018-08-30T08:26:28.052Z,102079.52
2018-08-30T08:27:29.594Z,102080.27
2018-08-30T08:28:29.896Z,102081.13
2018-08-30T08:28:38.633Z,102095.97
2018-08-30T08:29:39.376Z,102095.29
2018-08-30T08:30:39.735Z,102094.74
2018-08-30T08:31:40.074Z,102095.08
2018-08-30T08:32:41.770Z,102095.30
2018-08-30T08:33:41.111Z,102095.55
2018-08-30T08:34:41.569Z,102095.91
2018-08-30T08:35:41.766Z,102095.86
2018-08-30T08:36:42.745Z,102096.32
2018-08-30T08:37:42.964Z,102096.21
2018-08-30T08:38:43.243Z,102096.20
2018-08-30T08:39:43.721Z,102096.60
2018-08-30T08:40:44.120Z,102096.59
2018-08-30T08:41:44.424Z,102096.58
2018-08-30T08:42:44.785Z,102096.55
2018-08-30T08:43:45.086Z,102096.12
2018-08-30T08:44:45.384Z,102096.27
2018-08-30T08:45:45.901Z,102097.05
2018-08-30T08:46:46.402Z,102097.23
2018-08-30T08:47:46.698Z,102097.25
2018-08-30T08:48:46.103Z,102097.38
2018-08-30T08:49:46.332Z,102097.75
2018-08-30T08:50:47.850Z,102098.03
2018-08-30T08:51:48.413Z,102098.48
2018-08-30T08:52:48.832Z,102098.54
2018-08-30T08:53:49.166Z,102098.95
2018-08-30T08:54:48.724Z,102099.72
2018-08-30T08:55:50.036Z,102100.28
2018-08-30T08:56:50.302Z,102100.17
2018-08-30T08:57:50.626Z,102100.83
2018-08-30T08:58:51.134Z,102101.52
2018-08-30T08:59:50.325Z,102102.41
2018-08-30T09:00:51.501Z,102102.05
2018-08-30T09:01:51.987Z,102102.41
2018-08-30T09:02:52.284Z,102102.30
2018-08-30T09:03:52.714Z,102102.80
2018-08-30T09:04:53.235Z,102103.07
2018-08-30T09:05:53.763Z,102102.91
2018-08-30T09:06:54.267Z,102102.98
2018-08-30T09:07:54.516Z,102103.00
2018-08-30T09:08:54.878Z,102102.69
2018-08-30T09:09:55.167Z,102102.28
2018-08-30T09:10:56.484Z,102102.14
2018-08-30T09:11:56.851Z,102101.59
2018-08-30T09:12:56.216Z,102101.55
2018-08-30T09:13:56.503Z,102101.82
2018-08-30T09:14:56.957Z,102101.81
2018-08-30T09:15:56.232Z,102101.73
2018-08-30T09:16:57.525Z,102101.70
2018-08-30T09:17:06.197Z,102104.44
2018-08-30T09:18:07.357Z,102103.19
2018-08-30T09:19:07.715Z,102103.42
2018-08-30T09:20:07.345Z,102103.03
2018-08-30T09:21:07.768Z,102102.83
2018-08-30T09:22:09.137Z,102103.33
2018-08-30T09:23:09.968Z,102103.25
2018-08-30T09:24:10.078Z,102103.83
2018-08-30T09:25:09.714Z,102103.88
2018-08-30T09:26:10.984Z,102104.50
2018-08-30T09:27:11.515Z,102105.55
2018-08-30T09:28:10.752Z,102105.33
2018-08-30T09:29:11.039Z,102106.09
2018-08-30T09:30:12.347Z,102106.36
2018-08-30T09:31:12.940Z,102107.56
2018-08-30T09:32:13.328Z,102108.68
2018-08-30T09:33:13.922Z,102109.45
2018-08-30T09:34:14.157Z,102110.10
2018-08-30T09:35:14.513Z,102111.03
2018-08-30T09:36:14.889Z,102111.87
2018-08-30T09:37:15.350Z,102112.55
2018-08-30T09:38:15.707Z,102112.81
2018-08-30T09:39:16.037Z,102112.81
2018-08-30T09:40:16.352Z,102113.09
2018-08-30T09:41:15.661Z,102113.70
2018-08-30T09:42:17.027Z,102113.67
2018-08-30T09:43:17.480Z,102113.52
2018-08-30T09:44:17.742Z,102112.80
2018-08-30T09:45:18.147Z,102112.15
2018-08-30T09:46:18.489Z,102112.63
2018-08-30T09:47:19.040Z,102112.54
2018-08-30T09:48:19.309Z,102112.30
2018-08-30T09:49:19.742Z,102112.58
2018-08-30T09:50:19.000Z,102112.63
2018-08-30T09:51:20.380Z,102112.66
2018-08-30T09:52:20.755Z,102112.84
2018-08-30T09:53:21.272Z,102113.43
2018-08-30T09:54:21.745Z,102113.95
2018-08-30T09:55:22.122Z,102113.42
2018-08-30T09:56:22.470Z,102113.34
2018-08-30T09:57:22.997Z,102113.20
2018-08-30T09:58:22.334Z,102112.87
2018-08-30T09:59:23.940Z,102113.06
2018-08-30T10:00:24.277Z,102113.64
2018-08-30T10:01:27.668Z,102114.23
2018-08-30T10:02:24.996Z,102114.46
2018-08-30T10:03:25.354Z,102114.53
2018-08-30T10:04:25.747Z,102114.64
2018-08-30T10:05:26.048Z,102114.38
2018-08-30T10:06:26.358Z,102114.35
2018-08-30T10:06:35.123Z,102113.05
2018-08-30T10:07:36.389Z,102112.80
2018-08-30T10:08:35.731Z,102112.70
2018-08-30T10:09:37.015Z,102112.19
2018-08-30T10:10:37.315Z,102112.44
2018-08-30T10:11:37.719Z,102112.56
2018-08-30T10:12:38.104Z,102112.55
2018-08-30T10:13:38.440Z,102112.55
2018-08-30T10:14:37.739Z,102113.06
2018-08-30T10:15:39.081Z,102113.06
2018-08-30T10:16:39.506Z,102113.11
2018-08-30T10:17:39.893Z,102112.87
2018-08-30T10:18:40.274Z,102112.86
2018-08-30T10:19:40.834Z,102112.23
2018-08-30T10:20:41.133Z,102111.16
2018-08-30T10:21:41.410Z,102110.42
2018-08-30T10:22:41.687Z,102109.92
2018-08-30T10:23:42.236Z,102108.81
2018-08-30T10:24:42.597Z,102107.59
2018-08-30T10:25:42.913Z,102106.79
2018-08-30T10:26:42.241Z,102106.08
2018-08-30T10:27:43.581Z,102105.06
2018-08-30T10:28:44.100Z,102104.41
2018-08-30T10:29:44.458Z,102103.78
2018-08-30T10:30:44.889Z,102103.67
2018-08-30T10:31:45.457Z,102102.85
2018-08-30T10:32:45.800Z,102103.22
2018-08-30T10:33:46.276Z,102103.38
2018-08-30T10:34:46.625Z,102103.41
2018-08-30T10:35:47.022Z,102103.30
2018-08-30T10:36:47.798Z,102102.98
2018-08-30T10:37:48.165Z,102102.60
2018-08-30T10:38:49.031Z,102103.08
2018-08-30T10:39:49.421Z,102102.83
2018-08-30T10:40:49.728Z,102102.73
2018-08-30T10:41:50.019Z,102102.86
2018-08-30T10:42:50.695Z,102102.62
2018-08-30T10:43:50.110Z,102102.51
2018-08-30T10:44:51.501Z,102101.34
2018-08-30T10:45:51.771Z,102100.78
2018-08-30T10:46:52.038Z,102100.48
2018-08-30T10:47:52.344Z,102099.43
2018-08-30T10:48:52.672Z,102098.97
2018-08-30T10:49:53.254Z,102098.34
2018-08-30T10:50:52.503Z,102098.56
2018-08-30T10:51:53.768Z,102098.82
2018-08-30T10:52:54.126Z,102098.25
2018-08-30T10:53:54.853Z,102097.95
2018-08-30T10:54:55.664Z,102097.86
2018-08-30T10:55:04.555Z,102104.27
2018-08-30T10:56:05.019Z,102104.02
2018-08-30T10:57:05.376Z,102103.84
2018-08-30T10:58:05.932Z,102104.17
2018-08-30T10:59:06.669Z,102104.38
2018-08-30T11:00:06.019Z,102104.63
2018-08-30T11:01:07.648Z,102104.68
2018-08-30T11:02:08.407Z,102105.02
2018-08-30T11:03:08.041Z,102105.27
2018-08-30T11:04:09.838Z,102105.84
2018-08-30T11:05:09.284Z,102106.66
2018-08-30T11:06:10.735Z,102107.45
2018-08-30T11:07:11.173Z,102108.39
2018-08-30T11:08:11.437Z,102108.96
2018-08-30T11:09:11.925Z,102109.47
2018-08-30T11:10:12.316Z,102109.76
2018-08-30T11:11:12.645Z,102110.44
2018-08-30T11:12:13.293Z,102110.91
2018-08-30T11:13:13.567Z,102111.06
2018-08-30T11:14:13.921Z,102111.09
2018-08-30T11:15:14.314Z,102111.54
2018-08-30T11:16:14.594Z,102111.23
2018-08-30T11:17:14.865Z,102111.31